sensor_id;sensor_type;location;lat;lon;timestamp;P1;durP1;ratioP1;P2;durP2;ratioP2
69401;SDS011;56589;51.992;5.924;2023-05-10T00:01:39;20.77;;;14.45;;
69401;SDS011;56589;51.992;5.924;2023-05-10T00:04:04;23.92;;;15.45;;
69401;SDS011;56589;51.992;5.924;2023-05-10T00:06:30;24.58;;;15.77;;
69401;SDS011;56589;51.992;5.924;2023-05-10T00:08:59;26.77;;;15.77;;
69401;SDS011;56589;51.992;5.924;2023-05-10T00:11:25;24.85;;;17.05;;
69401;SDS011;56589;51.992;5.924;2023-05-10T00:13:51;28.88;;;16.95;;
69401;SDS011;56589;51.992;5.924;2023-05-10T00:16:17;29.98;;;17.40;;
69401;SDS011;56589;51.992;5.924;2023-05-10T00:18:42;29.15;;;17.67;;
69401;SDS011;56589;51.992;5.924;2023-05-10T00:21:08;29.50;;;17.92;;
69401;SDS011;56589;51.992;5.924;2023-05-10T00:23:34;31.10;;;17.08;;
69401;SDS011;56589;51.992;5.924;2023-05-10T00:26:02;30.48;;;18.23;;
69401;SDS011;56589;51.992;5.924;2023-05-10T00:28:28;33.15;;;18.83;;
69401;SDS011;56589;51.992;5.924;2023-05-10T00:30:54;34.78;;;20.02;;
69401;SDS011;56589;51.992;5.924;2023-05-10T00:33:20;34.13;;;20.02;;
69401;SDS011;56589;51.992;5.924;2023-05-10T00:35:46;33.67;;;20.20;;
69401;SDS011;56589;51.992;5.924;2023-05-10T00:38:12;36.30;;;21.08;;
69401;SDS011;56589;51.992;5.924;2023-05-10T00:40:38;40.33;;;20.83;;
69401;SDS011;56589;51.992;5.924;2023-05-10T00:43:06;40.30;;;22.00;;
69401;SDS011;56589;51.992;5.924;2023-05-10T00:45:32;39.38;;;21.15;;
69401;SDS011;56589;51.992;5.924;2023-05-10T00:48:01;36.53;;;21.65;;
69401;SDS011;56589;51.992;5.924;2023-05-10T00:50:28;42.55;;;23.30;;
69401;SDS011;56589;51.992;5.924;2023-05-10T00:52:54;40.30;;;23.42;;
69401;SDS011;56589;51.992;5.924;2023-05-10T00:55:20;40.17;;;23.80;;
69401;SDS011;56589;51.992;5.924;2023-05-10T00:57:46;45.95;;;24.95;;
69401;SDS011;56589;51.992;5.924;2023-05-10T01:00:15;43.05;;;26.25;;
69401;SDS011;56589;51.992;5.924;2023-05-10T01:02:42;45.65;;;26.42;;
69401;SDS011;56589;51.992;5.924;2023-05-10T01:05:08;44.05;;;24.65;;
69401;SDS011;56589;51.992;5.924;2023-05-10T01:07:34;43.28;;;27.38;;
69401;SDS011;56589;51.992;5.924;2023-05-10T01:10:00;47.05;;;27.23;;
69401;SDS011;56589;51.992;5.924;2023-05-10T01:12:26;44.78;;;26.63;;
69401;SDS011;56589;51.992;5.924;2023-05-10T01:14:52;50.03;;;28.08;;
69401;SDS011;56589;51.992;5.924;2023-05-10T01:17:22;48.50;;;27.05;;
69401;SDS011;56589;51.992;5.924;2023-05-10T01:19:49;48.40;;;28.70;;
69401;SDS011;56589;51.992;5.924;2023-05-10T01:22:21;53.72;;;30.08;;
69401;SDS011;56589;51.992;5.924;2023-05-10T01:25:31;47.53;;;27.75;;
69401;SDS011;56589;51.992;5.924;2023-05-10T01:31:35;51.83;;;29.23;;
69401;SDS011;56589;51.992;5.924;2023-05-10T01:34:32;51.70;;;29.77;;
69401;SDS011;56589;51.992;5.924;2023-05-10T01:37:10;54.13;;;29.25;;
69401;SDS011;56589;51.992;5.924;2023-05-10T01:39:52;57.22;;;30.10;;
69401;SDS011;56589;51.992;5.924;2023-05-10T01:42:28;56.10;;;30.52;;
69401;SDS011;56589;51.992;5.924;2023-05-10T01:45:07;55.38;;;30.20;;
69401;SDS011;56589;51.992;5.924;2023-05-10T01:47:46;52.42;;;29.52;;
69401;SDS011;56589;51.992;5.924;2023-05-10T01:50:19;54.78;;;29.40;;
69401;SDS011;56589;51.992;5.924;2023-05-10T01:55:20;52.53;;;29.02;;
69401;SDS011;56589;51.992;5.924;2023-05-10T01:57:51;51.55;;;29.40;;
69401;SDS011;56589;51.992;5.924;2023-05-10T02:00:30;49.78;;;27.25;;
69401;SDS011;56589;51.992;5.924;2023-05-10T02:03:03;47.28;;;28.13;;
69401;SDS011;56589;51.992;5.924;2023-05-10T02:05:33;48.85;;;28.20;;
69401;SDS011;56589;51.992;5.924;2023-05-10T02:08:01;50.75;;;26.92;;
69401;SDS011;56589;51.992;5.924;2023-05-10T02:10:32;47.03;;;27.45;;
69401;SDS011;56589;51.992;5.924;2023-05-10T02:13:00;45.55;;;26.55;;
69401;SDS011;56589;51.992;5.924;2023-05-10T02:15:28;46.67;;;26.42;;
69401;SDS011;56589;51.992;5.924;2023-05-10T02:17:56;50.22;;;25.60;;
69401;SDS011;56589;51.992;5.924;2023-05-10T02:20:27;49.95;;;25.75;;
69401;SDS011;56589;51.992;5.924;2023-05-10T02:22:57;47.22;;;24.98;;
69401;SDS011;56589;51.992;5.924;2023-05-10T02:25:26;44.13;;;23.65;;
69401;SDS011;56589;51.992;5.924;2023-05-10T02:27:55;44.78;;;24.90;;
69401;SDS011;56589;51.992;5.924;2023-05-10T02:30:25;46.58;;;25.60;;
69401;SDS011;56589;51.992;5.924;2023-05-10T02:32:53;46.78;;;25.20;;
69401;SDS011;56589;51.992;5.924;2023-05-10T02:35:21;48.20;;;24.30;;
69401;SDS011;56589;51.992;5.924;2023-05-10T02:37:53;48.70;;;25.83;;
69401;SDS011;56589;51.992;5.924;2023-05-10T02:40:20;46.97;;;25.60;;
69401;SDS011;56589;51.992;5.924;2023-05-10T02:42:50;48.97;;;25.70;;
69401;SDS011;56589;51.992;5.924;2023-05-10T02:45:20;50.50;;;26.33;;
69401;SDS011;56589;51.992;5.924;2023-05-10T02:47:51;50.05;;;24.88;;
69401;SDS011;56589;51.992;5.924;2023-05-10T02:50:17;49.28;;;26.15;;
69401;SDS011;56589;51.992;5.924;2023-05-10T02:52:45;47.83;;;25.60;;
69401;SDS011;56589;51.992;5.924;2023-05-10T02:55:19;57.33;;;27.23;;
69401;SDS011;56589;51.992;5.924;2023-05-10T02:57:56;55.15;;;28.05;;
69401;SDS011;56589;51.992;5.924;2023-05-10T03:00:25;58.78;;;27.45;;
69401;SDS011;56589;51.992;5.924;2023-05-10T03:02:52;57.45;;;29.33;;
69401;SDS011;56589;51.992;5.924;2023-05-10T03:05:18;57.83;;;28.30;;
69401;SDS011;56589;51.992;5.924;2023-05-10T03:07:44;60.92;;;28.90;;
69401;SDS011;56589;51.992;5.924;2023-05-10T03:10:11;53.70;;;28.35;;
69401;SDS011;56589;51.992;5.924;2023-05-10T03:12:49;51.65;;;27.85;;
69401;SDS011;56589;51.992;5.924;2023-05-10T03:15:30;60.65;;;29.88;;
69401;SDS011;56589;51.992;5.924;2023-05-10T03:18:22;58.03;;;31.02;;
69401;SDS011;56589;51.992;5.924;2023-05-10T03:20:55;62.00;;;30.00;;
69401;SDS011;56589;51.992;5.924;2023-05-10T03:23:27;59.40;;;29.60;;
69401;SDS011;56589;51.992;5.924;2023-05-10T03:26:00;57.53;;;28.42;;
69401;SDS011;56589;51.992;5.924;2023-05-10T03:28:32;57.15;;;28.58;;
69401;SDS011;56589;51.992;5.924;2023-05-10T03:30:59;57.10;;;30.52;;
69401;SDS011;56589;51.992;5.924;2023-05-10T03:33:27;57.53;;;30.38;;
69401;SDS011;56589;51.992;5.924;2023-05-10T03:35:54;57.50;;;30.20;;
69401;SDS011;56589;51.992;5.924;2023-05-10T03:38:20;63.03;;;29.85;;
69401;SDS011;56589;51.992;5.924;2023-05-10T03:40:46;57.97;;;30.95;;
69401;SDS011;56589;51.992;5.924;2023-05-10T03:43:12;50.38;;;27.75;;
69401;SDS011;56589;51.992;5.924;2023-05-10T03:45:40;52.50;;;28.83;;
69401;SDS011;56589;51.992;5.924;2023-05-10T03:48:06;60.65;;;30.80;;
69401;SDS011;56589;51.992;5.924;2023-05-10T03:50:31;61.33;;;31.08;;
69401;SDS011;56589;51.992;5.924;2023-05-10T03:52:57;59.22;;;30.13;;
69401;SDS011;56589;51.992;5.924;2023-05-10T03:55:23;56.13;;;29.95;;
69401;SDS011;56589;51.992;5.924;2023-05-10T03:57:49;51.30;;;29.25;;
69401;SDS011;56589;51.992;5.924;2023-05-10T04:00:15;59.83;;;29.88;;
69401;SDS011;56589;51.992;5.924;2023-05-10T04:02:44;55.47;;;29.00;;
69401;SDS011;56589;51.992;5.924;2023-05-10T04:05:10;54.97;;;29.35;;
69401;SDS011;56589;51.992;5.924;2023-05-10T04:07:36;58.97;;;30.75;;
69401;SDS011;56589;51.992;5.924;2023-05-10T04:10:02;51.78;;;29.67;;
69401;SDS011;56589;51.992;5.924;2023-05-10T04:12:29;52.53;;;29.70;;
69401;SDS011;56589;51.992;5.924;2023-05-10T04:14:55;51.70;;;28.45;;
69401;SDS011;56589;51.992;5.924;2023-05-10T04:17:21;51.85;;;28.38;;
69401;SDS011;56589;51.992;5.924;2023-05-10T04:19:49;50.05;;;27.15;;
69401;SDS011;56589;51.992;5.924;2023-05-10T04:22:15;48.70;;;27.20;;
69401;SDS011;56589;51.992;5.924;2023-05-10T04:24:41;51.92;;;27.35;;
69401;SDS011;56589;51.992;5.924;2023-05-10T04:27:06;56.08;;;27.55;;
69401;SDS011;56589;51.992;5.924;2023-05-10T04:29:32;49.47;;;27.13;;
69401;SDS011;56589;51.992;5.924;2023-05-10T04:31:58;51.45;;;26.38;;
69401;SDS011;56589;51.992;5.924;2023-05-10T04:34:24;46.53;;;25.73;;
69401;SDS011;56589;51.992;5.924;2023-05-10T04:36:52;46.53;;;24.88;;
69401;SDS011;56589;51.992;5.924;2023-05-10T04:39:18;53.95;;;27.23;;
69401;SDS011;56589;51.992;5.924;2023-05-10T04:41:44;52.20;;;26.63;;
69401;SDS011;56589;51.992;5.924;2023-05-10T04:44:10;52.17;;;26.25;;
69401;SDS011;56589;51.992;5.924;2023-05-10T04:46:35;54.00;;;27.92;;
69401;SDS011;56589;51.992;5.924;2023-05-10T04:49:01;49.53;;;26.80;;
69401;SDS011;56589;51.992;5.924;2023-05-10T04:51:27;56.08;;;26.45;;
69401;SDS011;56589;51.992;5.924;2023-05-10T04:53:56;50.95;;;24.58;;
69401;SDS011;56589;51.992;5.924;2023-05-10T04:56:21;56.17;;;26.60;;
69401;SDS011;56589;51.992;5.924;2023-05-10T04:58:47;49.60;;;24.60;;
69401;SDS011;56589;51.992;5.924;2023-05-10T05:01:13;56.00;;;25.40;;
69401;SDS011;56589;51.992;5.924;2023-05-10T05:03:39;53.08;;;27.42;;
69401;SDS011;56589;51.992;5.924;2023-05-10T05:06:05;55.25;;;26.13;;
69401;SDS011;56589;51.992;5.924;2023-05-10T05:08:31;55.17;;;26.20;;
69401;SDS011;56589;51.992;5.924;2023-05-10T05:11:00;48.65;;;25.58;;
69401;SDS011;56589;51.992;5.924;2023-05-10T05:13:26;55.45;;;25.90;;
69401;SDS011;56589;51.992;5.924;2023-05-10T05:15:51;50.80;;;25.15;;
69401;SDS011;56589;51.992;5.924;2023-05-10T05:18:17;55.25;;;26.35;;
69401;SDS011;56589;51.992;5.924;2023-05-10T05:20:43;53.10;;;25.77;;
69401;SDS011;56589;51.992;5.924;2023-05-10T05:23:09;52.38;;;26.58;;
69401;SDS011;56589;51.992;5.924;2023-05-10T05:25:35;49.45;;;25.02;;
69401;SDS011;56589;51.992;5.924;2023-05-10T05:28:03;51.35;;;25.13;;
69401;SDS011;56589;51.992;5.924;2023-05-10T05:30:29;49.30;;;24.15;;
69401;SDS011;56589;51.992;5.924;2023-05-10T05:32:55;50.63;;;25.30;;
69401;SDS011;56589;51.992;5.924;2023-05-10T05:35:21;47.05;;;24.80;;
69401;SDS011;56589;51.992;5.924;2023-05-10T05:37:47;46.78;;;25.15;;
69401;SDS011;56589;51.992;5.924;2023-05-10T05:40:12;50.35;;;24.83;;
69401;SDS011;56589;51.992;5.924;2023-05-10T05:42:39;48.55;;;24.85;;
69401;SDS011;56589;51.992;5.924;2023-05-10T05:45:08;46.47;;;24.20;;
69401;SDS011;56589;51.992;5.924;2023-05-10T05:47:34;46.42;;;24.98;;
69401;SDS011;56589;51.992;5.924;2023-05-10T05:50:00;45.88;;;23.40;;
69401;SDS011;56589;51.992;5.924;2023-05-10T05:52:26;48.63;;;22.83;;
69401;SDS011;56589;51.992;5.924;2023-05-10T05:54:52;47.63;;;24.48;;
69401;SDS011;56589;51.992;5.924;2023-05-10T05:57:17;47.20;;;23.92;;
69401;SDS011;56589;51.992;5.924;2023-05-10T05:59:43;48.83;;;24.38;;
69401;SDS011;56589;51.992;5.924;2023-05-10T06:02:11;50.58;;;24.70;;
69401;SDS011;56589;51.992;5.924;2023-05-10T06:04:37;46.63;;;24.35;;
69401;SDS011;56589;51.992;5.924;2023-05-10T06:07:03;45.15;;;23.08;;
69401;SDS011;56589;51.992;5.924;2023-05-10T06:09:29;44.72;;;24.48;;
69401;SDS011;56589;51.992;5.924;2023-05-10T06:11:55;44.45;;;22.48;;
69401;SDS011;56589;51.992;5.924;2023-05-10T06:14:20;42.33;;;23.38;;
69401;SDS011;56589;51.992;5.924;2023-05-10T06:16:46;39.70;;;21.77;;
69401;SDS011;56589;51.992;5.924;2023-05-10T06:19:15;45.00;;;23.42;;
69401;SDS011;56589;51.992;5.924;2023-05-10T06:21:40;49.45;;;22.90;;
69401;SDS011;56589;51.992;5.924;2023-05-10T06:24:06;42.60;;;22.90;;
69401;SDS011;56589;51.992;5.924;2023-05-10T06:26:32;44.17;;;21.40;;
69401;SDS011;56589;51.992;5.924;2023-05-10T06:28:58;43.90;;;23.10;;
69401;SDS011;56589;51.992;5.924;2023-05-10T06:31:24;50.97;;;24.58;;
69401;SDS011;56589;51.992;5.924;2023-05-10T06:33:50;53.38;;;22.98;;
69401;SDS011;56589;51.992;5.924;2023-05-10T06:36:18;51.80;;;23.92;;
69401;SDS011;56589;51.992;5.924;2023-05-10T06:38:44;49.67;;;24.10;;
69401;SDS011;56589;51.992;5.924;2023-05-10T06:41:10;52.67;;;24.48;;
69401;SDS011;56589;51.992;5.924;2023-05-10T06:43:38;47.58;;;25.17;;
69401;SDS011;56589;51.992;5.924;2023-05-10T06:46:05;50.47;;;22.40;;
69401;SDS011;56589;51.992;5.924;2023-05-10T06:48:31;44.92;;;22.58;;
69401;SDS011;56589;51.992;5.924;2023-05-10T06:50:56;50.72;;;22.98;;
69401;SDS011;56589;51.992;5.924;2023-05-10T06:53:27;51.55;;;24.33;;
69401;SDS011;56589;51.992;5.924;2023-05-10T06:55:55;50.95;;;23.88;;
69401;SDS011;56589;51.992;5.924;2023-05-10T06:58:20;49.08;;;24.75;;
69401;SDS011;56589;51.992;5.924;2023-05-10T07:00:46;48.67;;;25.00;;
69401;SDS011;56589;51.992;5.924;2023-05-10T07:03:12;50.50;;;24.50;;
69401;SDS011;56589;51.992;5.924;2023-05-10T07:05:38;51.13;;;26.73;;
69401;SDS011;56589;51.992;5.924;2023-05-10T07:08:04;50.08;;;26.15;;
69401;SDS011;56589;51.992;5.924;2023-05-10T07:10:32;49.70;;;26.17;;
69401;SDS011;56589;51.992;5.924;2023-05-10T07:12:58;48.08;;;25.13;;
69401;SDS011;56589;51.992;5.924;2023-05-10T07:15:24;47.00;;;26.10;;
69401;SDS011;56589;51.992;5.924;2023-05-10T07:17:49;44.10;;;24.58;;
69401;SDS011;56589;51.992;5.924;2023-05-10T07:20:15;43.05;;;25.08;;
69401;SDS011;56589;51.992;5.924;2023-05-10T07:22:41;46.17;;;25.08;;
69401;SDS011;56589;51.992;5.924;2023-05-10T07:25:07;47.25;;;24.80;;
69401;SDS011;56589;51.992;5.924;2023-05-10T07:27:36;46.42;;;25.20;;
69401;SDS011;56589;51.992;5.924;2023-05-10T07:30:02;44.33;;;24.60;;
69401;SDS011;56589;51.992;5.924;2023-05-10T07:32:28;48.22;;;24.08;;
69401;SDS011;56589;51.992;5.924;2023-05-10T07:34:54;52.03;;;26.73;;
69401;SDS011;56589;51.992;5.924;2023-05-10T07:37:20;49.47;;;24.92;;
69401;SDS011;56589;51.992;5.924;2023-05-10T07:39:46;47.97;;;25.20;;
69401;SDS011;56589;51.992;5.924;2023-05-10T07:42:12;48.15;;;23.73;;
69401;SDS011;56589;51.992;5.924;2023-05-10T07:44:40;53.53;;;26.13;;
69401;SDS011;56589;51.992;5.924;2023-05-10T07:47:06;49.38;;;25.13;;
69401;SDS011;56589;51.992;5.924;2023-05-10T07:49:33;48.65;;;25.98;;
69401;SDS011;56589;51.992;5.924;2023-05-10T07:51:58;46.15;;;24.63;;
69401;SDS011;56589;51.992;5.924;2023-05-10T07:54:24;47.15;;;25.08;;
69401;SDS011;56589;51.992;5.924;2023-05-10T07:56:50;43.08;;;24.17;;
69401;SDS011;56589;51.992;5.924;2023-05-10T07:59:16;43.95;;;23.08;;
69401;SDS011;56589;51.992;5.924;2023-05-10T08:01:45;43.78;;;23.48;;
69401;SDS011;56589;51.992;5.924;2023-05-10T08:04:11;41.13;;;22.40;;
69401;SDS011;56589;51.992;5.924;2023-05-10T08:06:37;43.38;;;22.45;;
69401;SDS011;56589;51.992;5.924;2023-05-10T08:09:03;42.95;;;22.80;;
69401;SDS011;56589;51.992;5.924;2023-05-10T08:11:29;44.28;;;21.85;;
69401;SDS011;56589;51.992;5.924;2023-05-10T08:13:55;41.10;;;21.38;;
69401;SDS011;56589;51.992;5.924;2023-05-10T08:16:21;46.38;;;22.38;;
69401;SDS011;56589;51.992;5.924;2023-05-10T08:18:49;41.08;;;21.60;;
69401;SDS011;56589;51.992;5.924;2023-05-10T08:21:15;40.15;;;21.33;;
69401;SDS011;56589;51.992;5.924;2023-05-10T08:23:41;41.08;;;22.05;;
69401;SDS011;56589;51.992;5.924;2023-05-10T08:26:07;36.78;;;19.75;;
69401;SDS011;56589;51.992;5.924;2023-05-10T08:28:33;36.50;;;20.73;;
69401;SDS011;56589;51.992;5.924;2023-05-10T08:30:58;39.28;;;21.23;;
69401;SDS011;56589;51.992;5.924;2023-05-10T08:33:24;38.83;;;21.02;;
69401;SDS011;56589;51.992;5.924;2023-05-10T08:35:53;43.88;;;22.55;;
69401;SDS011;56589;51.992;5.924;2023-05-10T08:38:18;40.45;;;21.13;;
69401;SDS011;56589;51.992;5.924;2023-05-10T08:40:44;33.05;;;19.02;;
69401;SDS011;56589;51.992;5.924;2023-05-10T08:43:12;38.47;;;20.45;;
69401;SDS011;56589;51.992;5.924;2023-05-10T08:45:39;30.75;;;18.08;;
69401;SDS011;56589;51.992;5.924;2023-05-10T08:48:07;32.28;;;18.50;;
69401;SDS011;56589;51.992;5.924;2023-05-10T08:50:35;29.60;;;16.02;;
69401;SDS011;56589;51.992;5.924;2023-05-10T08:53:06;29.05;;;17.08;;
69401;SDS011;56589;51.992;5.924;2023-05-10T08:55:36;29.38;;;16.50;;
69401;SDS011;56589;51.992;5.924;2023-05-10T08:58:02;25.65;;;15.70;;
69401;SDS011;56589;51.992;5.924;2023-05-10T09:00:29;26.13;;;15.38;;
69401;SDS011;56589;51.992;5.924;2023-05-10T09:02:55;25.27;;;14.43;;
69401;SDS011;56589;51.992;5.924;2023-05-10T09:05:23;22.67;;;14.25;;
69401;SDS011;56589;51.992;5.924;2023-05-10T09:07:49;20.48;;;12.52;;
69401;SDS011;56589;51.992;5.924;2023-05-10T09:10:17;23.83;;;12.45;;
69401;SDS011;56589;51.992;5.924;2023-05-10T09:12:44;22.35;;;13.35;;
69401;SDS011;56589;51.992;5.924;2023-05-10T09:15:10;21.90;;;13.20;;
69401;SDS011;56589;51.992;5.924;2023-05-10T09:17:40;23.25;;;12.55;;
69401;SDS011;56589;51.992;5.924;2023-05-10T09:20:09;17.80;;;11.32;;
69401;SDS011;56589;51.992;5.924;2023-05-10T09:22:35;20.48;;;11.98;;
69401;SDS011;56589;51.992;5.924;2023-05-10T09:25:05;16.00;;;11.13;;
69401;SDS011;56589;51.992;5.924;2023-05-10T09:27:35;18.23;;;11.02;;
69401;SDS011;56589;51.992;5.924;2023-05-10T09:30:02;16.52;;;9.48;;
69401;SDS011;56589;51.992;5.924;2023-05-10T09:32:38;14.10;;;8.88;;
69401;SDS011;56589;51.992;5.924;2023-05-10T09:35:06;15.40;;;8.57;;
69401;SDS011;56589;51.992;5.924;2023-05-10T09:37:34;15.93;;;10.00;;
69401;SDS011;56589;51.992;5.924;2023-05-10T09:40:00;12.80;;;8.07;;
69401;SDS011;56589;51.992;5.924;2023-05-10T09:42:29;12.50;;;8.43;;
69401;SDS011;56589;51.992;5.924;2023-05-10T09:45:02;12.88;;;8.57;;
69401;SDS011;56589;51.992;5.924;2023-05-10T09:47:31;13.05;;;7.85;;
69401;SDS011;56589;51.992;5.924;2023-05-10T09:49:57;11.35;;;7.68;;
69401;SDS011;56589;51.992;5.924;2023-05-10T09:52:23;11.82;;;7.70;;
69401;SDS011;56589;51.992;5.924;2023-05-10T09:54:52;13.15;;;8.07;;
69401;SDS011;56589;51.992;5.924;2023-05-10T09:57:20;12.20;;;7.43;;
69401;SDS011;56589;51.992;5.924;2023-05-10T09:59:48;10.88;;;7.30;;
69401;SDS011;56589;51.992;5.924;2023-05-10T10:02:16;11.35;;;7.70;;
69401;SDS011;56589;51.992;5.924;2023-05-10T10:04:42;11.57;;;8.05;;
69401;SDS011;56589;51.992;5.924;2023-05-10T10:07:08;12.70;;;7.55;;
69401;SDS011;56589;51.992;5.924;2023-05-10T10:09:34;12.10;;;7.47;;
69401;SDS011;56589;51.992;5.924;2023-05-10T10:12:00;12.60;;;7.78;;
69401;SDS011;56589;51.992;5.924;2023-05-10T10:14:27;11.82;;;7.45;;
69401;SDS011;56589;51.992;5.924;2023-05-10T10:16:54;11.70;;;7.55;;
69401;SDS011;56589;51.992;5.924;2023-05-10T10:19:23;11.57;;;7.40;;
69401;SDS011;56589;51.992;5.924;2023-05-10T10:21:49;12.77;;;8.15;;
69401;SDS011;56589;51.992;5.924;2023-05-10T10:24:15;11.38;;;7.82;;
69401;SDS011;56589;51.992;5.924;2023-05-10T10:26:41;12.48;;;7.65;;
69401;SDS011;56589;51.992;5.924;2023-05-10T10:29:16;14.85;;;7.18;;
69401;SDS011;56589;51.992;5.924;2023-05-10T10:31:52;11.32;;;7.75;;
69401;SDS011;56589;51.992;5.924;2023-05-10T10:34:35;13.07;;;7.65;;
69401;SDS011;56589;51.992;5.924;2023-05-10T10:37:04;16.55;;;7.78;;
69401;SDS011;56589;51.992;5.924;2023-05-10T10:39:31;12.60;;;8.10;;
69401;SDS011;56589;51.992;5.924;2023-05-10T10:41:58;13.45;;;8.27;;
69401;SDS011;56589;51.992;5.924;2023-05-10T10:44:25;12.98;;;8.70;;
69401;SDS011;56589;51.992;5.924;2023-05-10T10:47:00;13.15;;;8.48;;
69401;SDS011;56589;51.992;5.924;2023-05-10T10:49:28;13.00;;;7.93;;
69401;SDS011;56589;51.992;5.924;2023-05-10T10:54:51;16.35;;;7.68;;
69401;SDS011;56589;51.992;5.924;2023-05-10T10:57:19;11.77;;;8.07;;
69401;SDS011;56589;51.992;5.924;2023-05-10T10:59:45;11.48;;;8.23;;
69401;SDS011;56589;51.992;5.924;2023-05-10T11:02:18;12.20;;;7.63;;
69401;SDS011;56589;51.992;5.924;2023-05-10T11:04:58;11.07;;;7.80;;
69401;SDS011;56589;51.992;5.924;2023-05-10T11:07:27;13.73;;;6.97;;
69401;SDS011;56589;51.992;5.924;2023-05-10T11:09:53;10.60;;;7.43;;
69401;SDS011;56589;51.992;5.924;2023-05-10T11:12:19;12.50;;;7.57;;
69401;SDS011;56589;51.992;5.924;2023-05-10T11:14:49;12.25;;;7.32;;
69401;SDS011;56589;51.992;5.924;2023-05-10T11:17:24;10.13;;;7.68;;
69401;SDS011;56589;51.992;5.924;2023-05-10T11:20:02;14.05;;;8.70;;
69401;SDS011;56589;51.992;5.924;2023-05-10T11:22:36;13.52;;;7.95;;
69401;SDS011;56589;51.992;5.924;2023-05-10T11:25:15;13.37;;;7.60;;
69401;SDS011;56589;51.992;5.924;2023-05-10T11:27:41;9.35;;;6.68;;
69401;SDS011;56589;51.992;5.924;2023-05-10T11:30:07;13.90;;;7.05;;
69401;SDS011;56589;51.992;5.924;2023-05-10T11:32:36;9.30;;;6.75;;
69401;SDS011;56589;51.992;5.924;2023-05-10T11:35:06;10.82;;;7.32;;
69401;SDS011;56589;51.992;5.924;2023-05-10T11:37:38;9.52;;;6.65;;
69401;SDS011;56589;51.992;5.924;2023-05-10T11:40:13;10.45;;;6.32;;
69401;SDS011;56589;51.992;5.924;2023-05-10T11:42:38;10.43;;;6.57;;
69401;SDS011;56589;51.992;5.924;2023-05-10T11:45:05;9.93;;;6.45;;
69401;SDS011;56589;51.992;5.924;2023-05-10T11:47:33;7.85;;;5.80;;
69401;SDS011;56589;51.992;5.924;2023-05-10T11:49:58;9.43;;;6.05;;
69401;SDS011;56589;51.992;5.924;2023-05-10T11:52:24;13.07;;;6.68;;
69401;SDS011;56589;51.992;5.924;2023-05-10T11:54:53;8.55;;;5.72;;
69401;SDS011;56589;51.992;5.924;2023-05-10T11:57:20;8.93;;;6.28;;
69401;SDS011;56589;51.992;5.924;2023-05-10T11:59:52;12.10;;;6.47;;
69401;SDS011;56589;51.992;5.924;2023-05-10T12:02:18;12.02;;;6.32;;
69401;SDS011;56589;51.992;5.924;2023-05-10T12:04:44;9.05;;;6.18;;
69401;SDS011;56589;51.992;5.924;2023-05-10T12:07:10;13.13;;;7.32;;
69401;SDS011;56589;51.992;5.924;2023-05-10T12:09:36;11.30;;;6.88;;
69401;SDS011;56589;51.992;5.924;2023-05-10T12:12:04;9.80;;;6.50;;
69401;SDS011;56589;51.992;5.924;2023-05-10T12:14:33;9.80;;;6.47;;
69401;SDS011;56589;51.992;5.924;2023-05-10T12:16:59;9.43;;;6.43;;
69401;SDS011;56589;51.992;5.924;2023-05-10T12:19:25;10.15;;;6.55;;
69401;SDS011;56589;51.992;5.924;2023-05-10T12:21:51;9.43;;;6.18;;
69401;SDS011;56589;51.992;5.924;2023-05-10T12:24:17;9.77;;;5.85;;
69401;SDS011;56589;51.992;5.924;2023-05-10T12:26:42;10.88;;;6.60;;
69401;SDS011;56589;51.992;5.924;2023-05-10T12:29:16;9.95;;;6.70;;
69401;SDS011;56589;51.992;5.924;2023-05-10T12:31:53;9.77;;;5.60;;
69401;SDS011;56589;51.992;5.924;2023-05-10T12:34:23;7.85;;;4.82;;
69401;SDS011;56589;51.992;5.924;2023-05-10T12:36:51;8.75;;;5.00;;
69401;SDS011;56589;51.992;5.924;2023-05-10T12:39:17;9.52;;;5.20;;
69401;SDS011;56589;51.992;5.924;2023-05-10T12:41:43;10.10;;;4.60;;
69401;SDS011;56589;51.992;5.924;2023-05-10T12:44:09;8.65;;;4.57;;
69401;SDS011;56589;51.992;5.924;2023-05-10T12:46:37;9.95;;;5.88;;
69401;SDS011;56589;51.992;5.924;2023-05-10T12:49:05;8.55;;;5.28;;
69401;SDS011;56589;51.992;5.924;2023-05-10T12:51:31;10.07;;;4.95;;
69401;SDS011;56589;51.992;5.924;2023-05-10T12:53:57;9.55;;;4.85;;
69401;SDS011;56589;51.992;5.924;2023-05-10T12:56:23;7.80;;;5.07;;
69401;SDS011;56589;51.992;5.924;2023-05-10T12:58:49;7.15;;;4.43;;
69401;SDS011;56589;51.992;5.924;2023-05-10T13:01:14;8.25;;;4.95;;
69401;SDS011;56589;51.992;5.924;2023-05-10T13:03:43;7.68;;;4.57;;
69401;SDS011;56589;51.992;5.924;2023-05-10T13:06:09;8.40;;;5.13;;
69401;SDS011;56589;51.992;5.924;2023-05-10T13:08:34;8.55;;;4.35;;
69401;SDS011;56589;51.992;5.924;2023-05-10T13:11:00;7.15;;;4.50;;
69401;SDS011;56589;51.992;5.924;2023-05-10T13:13:27;5.93;;;4.38;;
69401;SDS011;56589;51.992;5.924;2023-05-10T13:15:53;5.82;;;4.22;;
69401;SDS011;56589;51.992;5.924;2023-05-10T13:18:19;5.65;;;3.78;;
69401;SDS011;56589;51.992;5.924;2023-05-10T13:20:51;8.57;;;4.25;;
69401;SDS011;56589;51.992;5.924;2023-05-10T13:23:19;5.97;;;4.30;;
69401;SDS011;56589;51.992;5.924;2023-05-10T13:25:45;6.43;;;4.13;;
69401;SDS011;56589;51.992;5.924;2023-05-10T13:28:10;8.40;;;4.47;;
69401;SDS011;56589;51.992;5.924;2023-05-10T13:30:36;7.88;;;3.42;;
69401;SDS011;56589;51.992;5.924;2023-05-10T13:33:02;6.65;;;4.78;;
69401;SDS011;56589;51.992;5.924;2023-05-10T13:35:28;6.35;;;4.45;;
69401;SDS011;56589;51.992;5.924;2023-05-10T13:37:56;6.75;;;4.13;;
69401;SDS011;56589;51.992;5.924;2023-05-10T13:40:22;8.43;;;4.78;;
69401;SDS011;56589;51.992;5.924;2023-05-10T13:42:48;8.38;;;4.63;;
69401;SDS011;56589;51.992;5.924;2023-05-10T13:45:14;8.10;;;4.65;;
69401;SDS011;56589;51.992;5.924;2023-05-10T13:47:40;7.60;;;4.70;;
69401;SDS011;56589;51.992;5.924;2023-05-10T13:50:06;6.57;;;4.55;;
69401;SDS011;56589;51.992;5.924;2023-05-10T13:52:32;7.53;;;4.28;;
69401;SDS011;56589;51.992;5.924;2023-05-10T13:55:01;13.18;;;6.35;;
69401;SDS011;56589;51.992;5.924;2023-05-10T13:57:27;9.32;;;6.10;;
69401;SDS011;56589;51.992;5.924;2023-05-10T13:59:52;8.73;;;6.35;;
69401;SDS011;56589;51.992;5.924;2023-05-10T14:02:18;9.57;;;6.72;;
69401;SDS011;56589;51.992;5.924;2023-05-10T14:04:44;8.65;;;6.53;;
69401;SDS011;56589;51.992;5.924;2023-05-10T14:07:10;9.40;;;7.07;;
69401;SDS011;56589;51.992;5.924;2023-05-10T14:09:35;8.80;;;7.18;;
69401;SDS011;56589;51.992;5.924;2023-05-10T14:12:04;8.35;;;7.35;;
69401;SDS011;56589;51.992;5.924;2023-05-10T14:14:30;12.57;;;7.40;;
69401;SDS011;56589;51.992;5.924;2023-05-10T14:16:56;12.05;;;7.00;;
69401;SDS011;56589;51.992;5.924;2023-05-10T14:19:21;8.73;;;6.85;;
69401;SDS011;56589;51.992;5.924;2023-05-10T14:21:47;9.70;;;7.10;;
69401;SDS011;56589;51.992;5.924;2023-05-10T14:24:13;7.65;;;6.43;;
69401;SDS011;56589;51.992;5.924;2023-05-10T14:26:39;9.57;;;7.20;;
69401;SDS011;56589;51.992;5.924;2023-05-10T14:29:07;10.20;;;7.00;;
69401;SDS011;56589;51.992;5.924;2023-05-10T14:31:33;8.75;;;6.75;;
69401;SDS011;56589;51.992;5.924;2023-05-10T14:33:59;6.70;;;5.72;;
69401;SDS011;56589;51.992;5.924;2023-05-10T14:36:25;8.05;;;7.03;;
69401;SDS011;56589;51.992;5.924;2023-05-10T14:38:50;9.43;;;6.70;;
69401;SDS011;56589;51.992;5.924;2023-05-10T14:41:16;9.38;;;6.57;;